sensor_id;sensor_type;location;lat;lon;timestamp;temperature;humidity
76040;SHT30;64736;50.462;4.850;2023-06-26T00:02:17;23.45;63.18
76040;SHT30;64736;50.462;4.850;2023-06-26T00:04:44;23.43;63.03
76040;SHT30;64736;50.462;4.850;2023-06-26T00:07:10;23.37;63.39
76040;SHT30;64736;50.462;4.850;2023-06-26T00:09:36;23.38;63.36
76040;SHT30;64736;50.462;4.850;2023-06-26T00:12:02;23.28;63.54
76040;SHT30;64736;50.462;4.850;2023-06-26T00:14:28;23.27;63.58
76040;SHT30;64736;50.462;4.850;2023-06-26T00:16:53;23.20;63.79
76040;SHT30;64736;50.462;4.850;2023-06-26T00:19:19;23.20;64.07
76040;SHT30;64736;50.462;4.850;2023-06-26T00:21:45;22.97;65.12
76040;SHT30;64736;50.462;4.850;2023-06-26T00:24:12;23.14;64.57
76040;SHT30;64736;50.462;4.850;2023-06-26T00:26:38;22.89;65.61
76040;SHT30;64736;50.462;4.850;2023-06-26T00:29:04;23.00;65.45
76040;SHT30;64736;50.462;4.850;2023-06-26T00:31:30;22.92;65.63
76040;SHT30;64736;50.462;4.850;2023-06-26T00:33:56;22.80;65.94
76040;SHT30;64736;50.462;4.850;2023-06-26T00:36:22;22.68;65.91
76040;SHT30;64736;50.462;4.850;2023-06-26T00:38:52;22.55;65.22
76040;SHT30;64736;50.462;4.850;2023-06-26T00:41:19;22.49;64.93
76040;SHT30;64736;50.462;4.850;2023-06-26T00:43:45;22.44;64.36
76040;SHT30;64736;50.462;4.850;2023-06-26T00:46:13;22.42;64.32
76040;SHT30;64736;50.462;4.850;2023-06-26T00:48:44;22.42;64.21
76040;SHT30;64736;50.462;4.850;2023-06-26T00:51:10;22.39;64.25
76040;SHT30;64736;50.462;4.850;2023-06-26T00:53:36;22.31;64.62
76040;SHT30;64736;50.462;4.850;2023-06-26T00:56:02;22.28;65.06
76040;SHT30;64736;50.462;4.850;2023-06-26T00:58:29;22.17;62.28
76040;SHT30;64736;50.462;4.850;2023-06-26T01:00:54;22.12;62.67
76040;SHT30;64736;50.462;4.850;2023-06-26T01:03:22;22.12;62.70
76040;SHT30;64736;50.462;4.850;2023-06-26T01:05:50;22.11;61.85
76040;SHT30;64736;50.462;4.850;2023-06-26T01:08:16;22.07;62.17
76040;SHT30;64736;50.462;4.850;2023-06-26T01:10:42;22.04;62.29
76040;SHT30;64736;50.462;4.850;2023-06-26T01:13:08;22.00;62.28
76040;SHT30;64736;50.462;4.850;2023-06-26T01:15:34;21.87;62.78
76040;SHT30;64736;50.462;4.850;2023-06-26T01:18:01;21.72;63.45
76040;SHT30;64736;50.462;4.850;2023-06-26T01:20:31;21.83;63.20
76040;SHT30;64736;50.462;4.850;2023-06-26T01:28:22;21.63;64.26
76040;SHT30;64736;50.462;4.850;2023-06-26T01:30:50;21.62;64.53
76040;SHT30;64736;50.462;4.850;2023-06-26T01:33:16;21.56;64.84
76040;SHT30;64736;50.462;4.850;2023-06-26T01:35:42;21.53;65.26
76040;SHT30;64736;50.462;4.850;2023-06-26T01:38:15;21.47;65.80
76040;SHT30;64736;50.462;4.850;2023-06-26T01:40:42;21.41;66.90
76040;SHT30;64736;50.462;4.850;2023-06-26T01:43:27;21.38;67.67
76040;SHT30;64736;50.462;4.850;2023-06-26T01:46:04;21.21;68.01
76040;SHT30;64736;50.462;4.850;2023-06-26T01:48:42;21.14;68.38
76040;SHT30;64736;50.462;4.850;2023-06-26T01:51:13;21.12;67.88
76040;SHT30;64736;50.462;4.850;2023-06-26T01:53:44;21.02;67.91
76040;SHT30;64736;50.462;4.850;2023-06-26T01:56:16;21.01;67.98
76040;SHT30;64736;50.462;4.850;2023-06-26T01:58:46;20.90;67.36
76040;SHT30;64736;50.462;4.850;2023-06-26T02:01:13;20.92;67.18
76040;SHT30;64736;50.462;4.850;2023-06-26T02:03:39;20.90;67.11
76040;SHT30;64736;50.462;4.850;2023-06-26T02:06:04;20.83;67.09
76040;SHT30;64736;50.462;4.850;2023-06-26T02:08:30;20.73;67.67
76040;SHT30;64736;50.462;4.850;2023-06-26T02:10:56;20.73;67.42
76040;SHT30;64736;50.462;4.850;2023-06-26T02:13:21;20.66;67.59
76040;SHT30;64736;50.462;4.850;2023-06-26T02:15:47;20.63;67.36
76040;SHT30;64736;50.462;4.850;2023-06-26T02:18:13;20.57;67.02
76040;SHT30;64736;50.462;4.850;2023-06-26T02:20:39;20.56;67.47
76040;SHT30;64736;50.462;4.850;2023-06-26T02:23:05;20.54;67.42
76040;SHT30;64736;50.462;4.850;2023-06-26T02:25:31;20.49;67.67
76040;SHT30;64736;50.462;4.850;2023-06-26T02:27:57;20.47;67.84
76040;SHT30;64736;50.462;4.850;2023-06-26T02:30:22;20.46;68.05
76040;SHT30;64736;50.462;4.850;2023-06-26T02:32:48;20.36;68.44
76040;SHT30;64736;50.462;4.850;2023-06-26T02:35:14;20.28;68.96
76040;SHT30;64736;50.462;4.850;2023-06-26T02:37:39;20.26;69.29
76040;SHT30;64736;50.462;4.850;2023-06-26T02:40:05;20.19;69.78
76040;SHT30;64736;50.462;4.850;2023-06-26T02:42:34;20.18;70.34
76040;SHT30;64736;50.462;4.850;2023-06-26T02:45:00;19.98;71.24
76040;SHT30;64736;50.462;4.850;2023-06-26T02:47:25;19.89;71.83
76040;SHT30;64736;50.462;4.850;2023-06-26T02:49:51;19.88;72.15
76040;SHT30;64736;50.462;4.850;2023-06-26T02:52:17;19.78;72.52
76040;SHT30;64736;50.462;4.850;2023-06-26T02:54:44;19.81;72.70
76040;SHT30;64736;50.462;4.850;2023-06-26T02:57:10;19.60;73.25
76040;SHT30;64736;50.462;4.850;2023-06-26T02:59:36;19.64;73.17
76040;SHT30;64736;50.462;4.850;2023-06-26T03:02:01;19.60;73.45
76040;SHT30;64736;50.462;4.850;2023-06-26T03:04:27;19.55;73.93
76040;SHT30;64736;50.462;4.850;2023-06-26T03:06:53;19.53;74.03
76040;SHT30;64736;50.462;4.850;2023-06-26T03:09:18;19.49;74.07
76040;SHT30;64736;50.462;4.850;2023-06-26T03:11:47;19.38;74.49
76040;SHT30;64736;50.462;4.850;2023-06-26T03:14:14;19.28;74.75
76040;SHT30;64736;50.462;4.850;2023-06-26T03:16:40;19.27;75.13
76040;SHT30;64736;50.462;4.850;2023-06-26T03:19:05;19.27;75.14
76040;SHT30;64736;50.462;4.850;2023-06-26T03:21:32;19.27;75.29
76040;SHT30;64736;50.462;4.850;2023-06-26T03:23:58;19.26;75.38
76040;SHT30;64736;50.462;4.850;2023-06-26T03:26:23;19.20;75.58
76040;SHT30;64736;50.462;4.850;2023-06-26T03:28:53;19.14;75.91
76040;SHT30;64736;50.462;4.850;2023-06-26T03:31:19;19.13;76.05
76040;SHT30;64736;50.462;4.850;2023-06-26T03:33:46;19.06;76.38
76040;SHT30;64736;50.462;4.850;2023-06-26T03:36:12;19.07;76.41
76040;SHT30;64736;50.462;4.850;2023-06-26T03:38:37;19.10;76.36
76040;SHT30;64736;50.462;4.850;2023-06-26T03:41:03;19.09;76.39
76040;SHT30;64736;50.462;4.850;2023-06-26T03:43:29;19.07;76.73
76040;SHT30;64736;50.462;4.850;2023-06-26T03:45:54;19.13;76.64
76040;SHT30;64736;50.462;4.850;2023-06-26T03:48:20;19.13;76.61
76040;SHT30;64736;50.462;4.850;2023-06-26T03:50:46;19.06;76.93
76040;SHT30;64736;50.462;4.850;2023-06-26T03:53:11;18.96;77.27
76040;SHT30;64736;50.462;4.850;2023-06-26T03:55:37;18.96;77.50
76040;SHT30;64736;50.462;4.850;2023-06-26T03:58:04;18.92;77.73
76040;SHT30;64736;50.462;4.850;2023-06-26T04:00:30;18.91;77.98
76040;SHT30;64736;50.462;4.850;2023-06-26T04:02:56;18.99;77.83
76040;SHT30;64736;50.462;4.850;2023-06-26T04:05:23;18.99;77.97
76040;SHT30;64736;50.462;4.850;2023-06-26T04:07:52;18.91;78.33
76040;SHT30;64736;50.462;4.850;2023-06-26T04:10:18;18.92;78.40
76040;SHT30;64736;50.462;4.850;2023-06-26T04:12:45;18.92;78.51
76040;SHT30;64736;50.462;4.850;2023-06-26T04:15:10;18.91;78.66
76040;SHT30;64736;50.462;4.850;2023-06-26T04:17:37;18.85;79.01
76040;SHT30;64736;50.462;4.850;2023-06-26T04:20:03;18.82;79.11
76040;SHT30;64736;50.462;4.850;2023-06-26T04:22:33;18.81;79.28
76040;SHT30;64736;50.462;4.850;2023-06-26T04:25:03;18.79;79.43
76040;SHT30;64736;50.462;4.850;2023-06-26T04:27:29;18.75;79.53
76040;SHT30;64736;50.462;4.850;2023-06-26T04:29:55;18.71;79.86
76040;SHT30;64736;50.462;4.850;2023-06-26T04:32:21;18.71;79.85
76040;SHT30;64736;50.462;4.850;2023-06-26T04:34:47;18.85;79.60
76040;SHT30;64736;50.462;4.850;2023-06-26T04:37:13;18.85;79.58
76040;SHT30;64736;50.462;4.850;2023-06-26T04:39:42;18.75;79.64
76040;SHT30;64736;50.462;4.850;2023-06-26T04:42:08;18.61;79.92
76040;SHT30;64736;50.462;4.850;2023-06-26T04:44:35;18.59;80.15
76040;SHT30;64736;50.462;4.850;2023-06-26T04:47:03;18.64;79.91
76040;SHT30;64736;50.462;4.850;2023-06-26T04:49:29;18.65;79.82
76040;SHT30;64736;50.462;4.850;2023-06-26T04:51:56;18.55;79.74
76040;SHT30;64736;50.462;4.850;2023-06-26T04:54:22;18.45;79.80
76040;SHT30;64736;50.462;4.850;2023-06-26T04:56:48;18.45;80.04
76040;SHT30;64736;50.462;4.850;2023-06-26T04:59:14;18.49;79.31
76040;SHT30;64736;50.462;4.850;2023-06-26T05:01:40;18.52;79.33
76040;SHT30;64736;50.462;4.850;2023-06-26T05:04:06;18.54;79.33
76040;SHT30;64736;50.462;4.850;2023-06-26T05:06:32;18.20;79.24
76040;SHT30;64736;50.462;4.850;2023-06-26T05:08:58;18.33;79.58
76040;SHT30;64736;50.462;4.850;2023-06-26T05:11:25;18.37;78.63
76040;SHT30;64736;50.462;4.850;2023-06-26T05:13:51;18.21;78.84
76040;SHT30;64736;50.462;4.850;2023-06-26T05:16:17;18.06;79.26
76040;SHT30;64736;50.462;4.850;2023-06-26T05:18:43;18.24;78.44
76040;SHT30;64736;50.462;4.850;2023-06-26T05:21:08;18.26;78.30
76040;SHT30;64736;50.462;4.850;2023-06-26T05:23:34;18.26;78.51
76040;SHT30;64736;50.462;4.850;2023-06-26T05:26:03;18.28;78.34
76040;SHT30;64736;50.462;4.850;2023-06-26T05:28:30;18.30;77.41
76040;SHT30;64736;50.462;4.850;2023-06-26T05:30:57;18.30;77.32
76040;SHT30;64736;50.462;4.850;2023-06-26T05:33:25;18.36;77.21
76040;SHT30;64736;50.462;4.850;2023-06-26T05:35:54;18.33;77.09
76040;SHT30;64736;50.462;4.850;2023-06-26T05:38:21;18.14;77.27
76040;SHT30;64736;50.462;4.850;2023-06-26T05:40:47;18.33;76.66
76040;SHT30;64736;50.462;4.850;2023-06-26T05:43:13;18.20;77.04
76040;SHT30;64736;50.462;4.850;2023-06-26T05:45:39;18.34;76.20
76040;SHT30;64736;50.462;4.850;2023-06-26T05:48:05;18.28;76.46
76040;SHT30;64736;50.462;4.850;2023-06-26T05:50:31;18.43;76.28
76040;SHT30;64736;50.462;4.850;2023-06-26T05:52:57;18.49;76.00
76040;SHT30;64736;50.462;4.850;2023-06-26T05:55:24;18.48;75.69
76040;SHT30;64736;50.462;4.850;2023-06-26T05:57:50;18.43;74.40
76040;SHT30;64736;50.462;4.850;2023-06-26T06:00:17;18.47;75.03
76040;SHT30;64736;50.462;4.850;2023-06-26T06:02:43;18.43;74.48
76040;SHT30;64736;50.462;4.850;2023-06-26T06:05:09;18.24;74.85
76040;SHT30;64736;50.462;4.850;2023-06-26T06:07:35;18.27;74.45
76040;SHT30;64736;50.462;4.850;2023-06-26T06:10:02;18.48;74.38
76040;SHT30;64736;50.462;4.850;2023-06-26T06:12:28;18.61;73.39
76040;SHT30;64736;50.462;4.850;2023-06-26T06:14:55;18.41;72.51
76040;SHT30;64736;50.462;4.850;2023-06-26T06:17:21;18.62;72.82
76040;SHT30;64736;50.462;4.850;2023-06-26T06:19:47;18.62;72.76
76040;SHT30;64736;50.462;4.850;2023-06-26T06:22:13;18.55;72.43
76040;SHT30;64736;50.462;4.850;2023-06-26T06:24:39;18.51;72.50
76040;SHT30;64736;50.462;4.850;2023-06-26T06:27:05;18.47;71.99
76040;SHT30;64736;50.462;4.850;2023-06-26T06:29:30;18.40;72.16
76040;SHT30;64736;50.462;4.850;2023-06-26T06:31:57;18.65;71.40
76040;SHT30;64736;50.462;4.850;2023-06-26T06:34:22;18.49;71.58
76040;SHT30;64736;50.462;4.850;2023-06-26T06:36:48;18.68;71.45
76040;SHT30;64736;50.462;4.850;2023-06-26T06:39:15;18.76;70.56
76040;SHT30;64736;50.462;4.850;2023-06-26T06:41:41;18.78;71.06
76040;SHT30;64736;50.462;4.850;2023-06-26T06:44:07;18.84;70.48
76040;SHT30;64736;50.462;4.850;2023-06-26T06:46:33;18.85;70.76
76040;SHT30;64736;50.462;4.850;2023-06-26T06:48:59;18.86;70.32
76040;SHT30;64736;50.462;4.850;2023-06-26T06:51:25;18.99;69.71
76040;SHT30;64736;50.462;4.850;2023-06-26T06:53:51;19.02;69.87
76040;SHT30;64736;50.462;4.850;2023-06-26T06:56:17;19.16;69.36
76040;SHT30;64736;50.462;4.850;2023-06-26T06:58:43;19.05;69.39
76040;SHT30;64736;50.462;4.850;2023-06-26T07:01:12;18.95;69.50
76040;SHT30;64736;50.462;4.850;2023-06-26T07:03:39;19.00;69.79
76040;SHT30;64736;50.462;4.850;2023-06-26T07:06:05;18.93;70.22
76040;SHT30;64736;50.462;4.850;2023-06-26T07:08:31;19.17;69.34
76040;SHT30;64736;50.462;4.850;2023-06-26T07:10:56;19.02;69.46
76040;SHT30;64736;50.462;4.850;2023-06-26T07:13:23;19.34;68.73
76040;SHT30;64736;50.462;4.850;2023-06-26T07:15:49;19.26;68.12
76040;SHT30;64736;50.462;4.850;2023-06-26T07:18:15;19.13;68.67
76040;SHT30;64736;50.462;4.850;2023-06-26T07:20:41;19.06;68.53
76040;SHT30;64736;50.462;4.850;2023-06-26T07:23:08;19.14;68.68
76040;SHT30;64736;50.462;4.850;2023-06-26T07:25:33;19.16;67.81
76040;SHT30;64736;50.462;4.850;2023-06-26T07:27:59;19.16;67.93
76040;SHT30;64736;50.462;4.850;2023-06-26T07:30:25;18.99;67.78
76040;SHT30;64736;50.462;4.850;2023-06-26T07:32:51;19.20;67.29
76040;SHT30;64736;50.462;4.850;2023-06-26T07:35:17;19.31;67.51
76040;SHT30;64736;50.462;4.850;2023-06-26T07:37:43;19.31;67.07
76040;SHT30;64736;50.462;4.850;2023-06-26T07:40:09;19.34;66.78
76040;SHT30;64736;50.462;4.850;2023-06-26T07:42:35;19.37;67.07
76040;SHT30;64736;50.462;4.850;2023-06-26T07:45:01;19.33;67.17
76040;SHT30;64736;50.462;4.850;2023-06-26T07:47:27;19.46;67.13
76040;SHT30;64736;50.462;4.850;2023-06-26T07:49:52;19.78;65.56
76040;SHT30;64736;50.462;4.850;2023-06-26T07:52:19;19.60;66.20
76040;SHT30;64736;50.462;4.850;2023-06-26T07:54:45;19.71;66.02
76040;SHT30;64736;50.462;4.850;2023-06-26T07:57:11;19.75;65.76
76040;SHT30;64736;50.462;4.850;2023-06-26T07:59:38;19.81;65.82
76040;SHT30;64736;50.462;4.850;2023-06-26T08:02:05;19.79;64.79
76040;SHT30;64736;50.462;4.850;2023-06-26T08:04:31;19.81;65.26
76040;SHT30;64736;50.462;4.850;2023-06-26T08:06:58;19.86;65.07
76040;SHT30;64736;50.462;4.850;2023-06-26T08:09:26;19.99;64.92
76040;SHT30;64736;50.462;4.850;2023-06-26T08:11:52;19.83;64.08
76040;SHT30;64736;50.462;4.850;2023-06-26T08:14:19;19.86;63.29
76040;SHT30;64736;50.462;4.850;2023-06-26T08:16:46;19.98;63.96
76040;SHT30;64736;50.462;4.850;2023-06-26T08:19:16;20.04;63.23
76040;SHT30;64736;50.462;4.850;2023-06-26T08:21:42;20.05;62.93
76040;SHT30;64736;50.462;4.850;2023-06-26T08:24:08;20.02;62.64
76040;SHT30;64736;50.462;4.850;2023-06-26T08:26:35;20.33;62.14
76040;SHT30;64736;50.462;4.850;2023-06-26T08:29:01;20.12;61.69
76040;SHT30;64736;50.462;4.850;2023-06-26T08:31:34;20.39;61.75
76040;SHT30;64736;50.462;4.850;2023-06-26T08:34:01;20.63;61.58
76040;SHT30;64736;50.462;4.850;2023-06-26T08:36:26;20.54;60.52
76040;SHT30;64736;50.462;4.850;2023-06-26T08:38:52;20.92;61.08
76040;SHT30;64736;50.462;4.850;2023-06-26T08:41:18;20.30;60.41
76040;SHT30;64736;50.462;4.850;2023-06-26T08:43:44;20.53;60.22
76040;SHT30;64736;50.462;4.850;2023-06-26T08:46:10;20.58;60.09
76040;SHT30;64736;50.462;4.850;2023-06-26T08:48:36;20.81;60.14
76040;SHT30;64736;50.462;4.850;2023-06-26T08:51:11;20.90;59.94
76040;SHT30;64736;50.462;4.850;2023-06-26T08:53:49;20.87;58.72
76040;SHT30;64736;50.462;4.850;2023-06-26T08:56:17;20.85;58.76
76040;SHT30;64736;50.462;4.850;2023-06-26T08:58:47;20.83;58.26
76040;SHT30;64736;50.462;4.850;2023-06-26T09:01:13;20.90;57.70
76040;SHT30;64736;50.462;4.850;2023-06-26T09:03:39;20.99;57.41
76040;SHT30;64736;50.462;4.850;2023-06-26T09:06:07;21.04;57.07
76040;SHT30;64736;50.462;4.850;2023-06-26T09:08:33;21.18;57.19
76040;SHT30;64736;50.462;4.850;2023-06-26T09:10:58;21.29;55.74
76040;SHT30;64736;50.462;4.850;2023-06-26T09:13:25;21.54;55.89
76040;SHT30;64736;50.462;4.850;2023-06-26T09:15:54;21.43;55.84
76040;SHT30;64736;50.462;4.850;2023-06-26T09:18:20;21.62;54.74
76040;SHT30;64736;50.462;4.850;2023-06-26T09:20:47;21.53;55.40
76040;SHT30;64736;50.462;4.850;2023-06-26T09:23:13;21.43;56.03
76040;SHT30;64736;50.462;4.850;2023-06-26T09:25:40;21.32;56.42
76040;SHT30;64736;50.462;4.850;2023-06-26T09:28:06;21.59;56.44
76040;SHT30;64736;50.462;4.850;2023-06-26T09:30:32;22.14;54.68
76040;SHT30;64736;50.462;4.850;2023-06-26T09:33:19;21.31;55.60
76040;SHT30;64736;50.462;4.850;2023-06-26T09:35:46;21.69;55.82
76040;SHT30;64736;50.462;4.850;2023-06-26T09:38:12;21.54;54.46
76040;SHT30;64736;50.462;4.850;2023-06-26T09:40:39;21.73;53.70
76040;SHT30;64736;50.462;4.850;2023-06-26T09:43:06;22.14;52.37
76040;SHT30;64736;50.462;4.850;2023-06-26T09:45:33;21.64;53.47
76040;SHT30;64736;50.462;4.850;2023-06-26T09:48:06;21.49;53.07
76040;SHT30;64736;50.462;4.850;2023-06-26T09:50:34;22.37;51.60
76040;SHT30;64736;50.462;4.850;2023-06-26T09:53:13;22.25;52.76
76040;SHT30;64736;50.462;4.850;2023-06-26T09:55:39;22.47;51.65
76040;SHT30;64736;50.462;4.850;2023-06-26T09:58:06;22.10;50.22
76040;SHT30;64736;50.462;4.850;2023-06-26T10:00:32;22.05;49.90
76040;SHT30;64736;50.462;4.850;2023-06-26T10:03:01;23.02;49.48
76040;SHT30;64736;50.462;4.850;2023-06-26T10:05:27;23.55;48.69
76040;SHT30;64736;50.462;4.850;2023-06-26T10:07:54;23.06;49.67
76040;SHT30;64736;50.462;4.850;2023-06-26T10:10:21;22.49;50.95
76040;SHT30;64736;50.462;4.850;2023-06-26T10:12:49;23.76;47.86
76040;SHT30;64736;50.462;4.850;2023-06-26T10:15:17;23.47;47.00
76040;SHT30;64736;50.462;4.850;2023-06-26T10:17:45;24.67;44.68
76040;SHT30;64736;50.462;4.850;2023-06-26T10:20:13;24.30;46.26
76040;SHT30;64736;50.462;4.850;2023-06-26T10:22:44;24.50;45.54
76040;SHT30;64736;50.462;4.850;2023-06-26T10:25:12;24.88;45.47
76040;SHT30;64736;50.462;4.850;2023-06-26T10:27:41;24.60;44.61
76040;SHT30;64736;50.462;4.850;2023-06-26T10:30:13;24.91;44.76
76040;SHT30;64736;50.462;4.850;2023-06-26T10:32:40;23.93;45.72
76040;SHT30;64736;50.462;4.850;2023-06-26T10:35:06;24.72;45.41
76040;SHT30;64736;50.462;4.850;2023-06-26T10:37:49;24.44;45.86
76040;SHT30;64736;50.462;4.850;2023-06-26T10:40:25;28.10;38.75
76040;SHT30;64736;50.462;4.850;2023-06-26T10:43:06;27.00;40.25
76040;SHT30;64736;50.462;4.850;2023-06-26T10:45:35;25.33;43.87
76040;SHT30;64736;50.462;4.850;2023-06-26T10:48:02;25.19;43.26
76040;SHT30;64736;50.462;4.850;2023-06-26T10:50:31;26.01;42.33
76040;SHT30;64736;50.462;4.850;2023-06-26T10:56:04;25.14;42.84
76040;SHT30;64736;50.462;4.850;2023-06-26T11:01:21;25.15;41.55
76040;SHT30;64736;50.462;4.850;2023-06-26T11:06:19;26.31;39.60
76040;SHT30;64736;50.462;4.850;2023-06-26T11:09:01;25.15;42.31
76040;SHT30;64736;50.462;4.850;2023-06-26T11:14:17;27.12;38.51
76040;SHT30;64736;50.462;4.850;2023-06-26T11:16:43;24.98;42.61
76040;SHT30;64736;50.462;4.850;2023-06-26T11:19:13;25.91;41.56
76040;SHT30;64736;50.462;4.850;2023-06-26T11:21:39;26.25;41.70
76040;SHT30;64736;50.462;4.850;2023-06-26T11:24:09;25.94;41.84
76040;SHT30;64736;50.462;4.850;2023-06-26T11:26:39;26.26;42.47
76040;SHT30;64736;50.462;4.850;2023-06-26T11:29:04;28.76;36.84
76040;SHT30;64736;50.462;4.850;2023-06-26T11:31:35;26.55;39.86
76040;SHT30;64736;50.462;4.850;2023-06-26T11:34:03;24.77;43.27
76040;SHT30;64736;50.462;4.850;2023-06-26T11:36:31;25.33;42.94
76040;SHT30;64736;50.462;4.850;2023-06-26T11:38:58;28.72;35.94
76040;SHT30;64736;50.462;4.850;2023-06-26T11:41:27;27.03;37.13
76040;SHT30;64736;50.462;4.850;2023-06-26T11:43:53;27.66;34.63
76040;SHT30;64736;50.462;4.850;2023-06-26T11:46:20;26.17;38.05
76040;SHT30;64736;50.462;4.850;2023-06-26T11:48:46;25.20;39.96
76040;SHT30;64736;50.462;4.850;2023-06-26T11:51:13;27.00;38.94
76040;SHT30;64736;50.462;4.850;2023-06-26T11:53:41;26.21;38.28
76040;SHT30;64736;50.462;4.850;2023-06-26T11:56:11;27.56;35.91
76040;SHT30;64736;50.462;4.850;2023-06-26T11:59:16;27.12;38.36
76040;SHT30;64736;50.462;4.850;2023-06-26T12:01:43;26.57;37.96
76040;SHT30;64736;50.462;4.850;2023-06-26T12:04:15;28.02;37.80
76040;SHT30;64736;50.462;4.850;2023-06-26T12:06:50;27.04;39.28
76040;SHT30;64736;50.462;4.850;2023-06-26T12:09:18;25.25;42.19
76040;SHT30;64736;50.462;4.850;2023-06-26T12:11:46;28.74;37.18
76040;SHT30;64736;50.462;4.850;2023-06-26T12:14:14;25.70;42.08
76040;SHT30;64736;50.462;4.850;2023-06-26T12:16:40;26.36;39.52
76040;SHT30;64736;50.462;4.850;2023-06-26T12:19:07;26.42;38.70
76040;SHT30;64736;50.462;4.850;2023-06-26T12:24:00;25.80;39.27
76040;SHT30;64736;50.462;4.850;2023-06-26T12:26:27;27.33;37.75
76040;SHT30;64736;50.462;4.850;2023-06-26T12:29:02;27.24;36.31
76040;SHT30;64736;50.462;4.850;2023-06-26T12:31:28;29.77;33.00
76040;SHT30;64736;50.462;4.850;2023-06-26T12:33:54;28.68;34.54
76040;SHT30;64736;50.462;4.850;2023-06-26T12:36:20;25.05;40.14
76040;SHT30;64736;50.462;4.850;2023-06-26T12:38:46;27.58;36.85
76040;SHT30;64736;50.462;4.850;2023-06-26T12:41:13;24.88;39.97
76040;SHT30;64736;50.462;4.850;2023-06-26T12:43:42;26.26;37.87
76040;SHT30;64736;50.462;4.850;2023-06-26T12:46:08;28.14;35.18
76040;SHT30;64736;50.462;4.850;2023-06-26T12:48:41;29.77;34.37
76040;SHT30;64736;50.462;4.850;2023-06-26T12:51:17;28.43;33.64
76040;SHT30;64736;50.462;4.850;2023-06-26T12:53:43;28.03;34.90
76040;SHT30;64736;50.462;4.850;2023-06-26T12:56:10;27.69;35.08
76040;SHT30;64736;50.462;4.850;2023-06-26T12:58:37;26.59;37.83
76040;SHT30;64736;50.462;4.850;2023-06-26T13:01:07;28.67;33.27
76040;SHT30;64736;50.462;4.850;2023-06-26T13:03:39;28.34;33.05
76040;SHT30;64736;50.462;4.850;2023-06-26T13:06:05;28.51;32.82
76040;SHT30;64736;50.462;4.850;2023-06-26T13:08:31;27.15;34.53
76040;SHT30;64736;50.462;4.850;2023-06-26T13:10:57;28.36;33.27
76040;SHT30;64736;50.462;4.850;2023-06-26T13:13:22;28.34;33.06
76040;SHT30;64736;50.462;4.850;2023-06-26T13:15:49;27.24;34.59
76040;SHT30;64736;50.462;4.850;2023-06-26T13:18:15;28.07;34.37
76040;SHT30;64736;50.462;4.850;2023-06-26T13:20:41;28.31;32.86
76040;SHT30;64736;50.462;4.850;2023-06-26T13:23:06;26.77;35.29
76040;SHT30;64736;50.462;4.850;2023-06-26T13:25:33;29.06;31.55
76040;SHT30;64736;50.462;4.850;2023-06-26T13:27:58;28.13;33.43
76040;SHT30;64736;50.462;4.850;2023-06-26T13:30:24;28.62;32.98
76040;SHT30;64736;50.462;4.850;2023-06-26T13:32:50;29.19;33.18
76040;SHT30;64736;50.462;4.850;2023-06-26T13:35:16;31.90;30.19
76040;SHT30;64736;50.462;4.850;2023-06-26T13:37:42;31.08;29.83
76040;SHT30;64736;50.462;4.850;2023-06-26T13:40:09;29.17;32.63
76040;SHT30;64736;50.462;4.850;2023-06-26T13:42:35;28.47;33.89
76040;SHT30;64736;50.462;4.850;2023-06-26T13:45:02;27.99;35.15
76040;SHT30;64736;50.462;4.850;2023-06-26T13:47:29;28.33;34.17
76040;SHT30;64736;50.462;4.850;2023-06-26T13:49:54;30.35;31.21
76040;SHT30;64736;50.462;4.850;2023-06-26T13:52:20;29.09;32.38
76040;SHT30;64736;50.462;4.850;2023-06-26T13:54:46;28.30;33.62
76040;SHT30;64736;50.462;4.850;2023-06-26T13:57:12;29.06;32.48
76040;SHT30;64736;50.462;4.850;2023-06-26T13:59:38;28.76;32.53
76040;SHT30;64736;50.462;4.850;2023-06-26T14:02:08;28.18;33.65
76040;SHT30;64736;50.462;4.850;2023-06-26T14:04:33;29.50;32.62
76040;SHT30;64736;50.462;4.850;2023-06-26T14:06:59;28.06;33.66
76040;SHT30;64736;50.462;4.850;2023-06-26T14:09:25;28.57;32.84
76040;SHT30;64736;50.462;4.850;2023-06-26T14:11:51;26.96;35.73
76040;SHT30;64736;50.462;4.850;2023-06-26T14:14:16;27.93;34.67
76040;SHT30;64736;50.462;4.850;2023-06-26T14:16:42;28.45;31.59
76040;SHT30;64736;50.462;4.850;2023-06-26T14:19:08;29.89;30.80
76040;SHT30;64736;50.462;4.850;2023-06-26T14:21:40;28.38;29.57
76040;SHT30;64736;50.462;4.850;2023-06-26T14:24:06;27.55;31.96
76040;SHT30;64736;50.462;4.850;2023-06-26T14:26:32;28.47;32.23
76040;SHT30;64736;50.462;4.850;2023-06-26T14:28:59;29.30;31.92
76040;SHT30;64736;50.462;4.850;2023-06-26T14:31:26;29.46;31.58
76040;SHT30;64736;50.462;4.850;2023-06-26T14:33:52;28.68;31.68
76040;SHT30;64736;50.462;4.850;2023-06-26T14:36:17;29.88;30.96
76040;SHT30;64736;50.462;4.850;2023-06-26T14:38:44;30.23;31.11
76040;SHT30;64736;50.462;4.850;2023-06-26T14:41:11;30.19;31.13
76040;SHT30;64736;50.462;4.850;2023-06-26T14:43:37;27.86;32.62
76040;SHT30;64736;50.462;4.850;2023-06-26T14:46:02;27.89;30.53
76040;SHT30;64736;50.462;4.850;2023-06-26T14:48:28;29.26;29.87
76040;SHT30;64736;50.462;4.850;2023-06-26T14:50:54;30.06;28.78
76040;SHT30;64736;50.462;4.850;2023-06-26T14:53:19;30.25;28.87
76040;SHT30;64736;50.462;4.850;2023-06-26T14:55:45;28.50;31.01
76040;SHT30;64736;50.462;4.850;2023-06-26T14:58:11;30.23;29.72
76040;SHT30;64736;50.462;4.850;2023-06-26T15:00:37;29.42;30.04
76040;SHT30;64736;50.462;4.850;2023-06-26T15:03:02;28.72;30.73
76040;SHT30;64736;50.462;4.850;2023-06-26T15:05:28;29.78;30.44
76040;SHT30;64736;50.462;4.850;2023-06-26T15:07:54;29.17;30.62
76040;SHT30;64736;50.462;4.850;2023-06-26T15:10:20;29.89;29.89
76040;SHT30;64736;50.462;4.850;2023-06-26T15:12:47;28.72;31.70
76040;SHT30;64736;50.462;4.850;2023-06-26T15:15:12;26.01;34.55
76040;SHT30;64736;50.462;4.850;2023-06-26T15:17:39;27.81;32.08
76040;SHT30;64736;50.462;4.850;2023-06-26T15:20:05;28.20;32.36
76040;SHT30;64736;50.462;4.850;2023-06-26T15:22:32;28.07;34.01
76040;SHT30;64736;50.462;4.850;2023-06-26T15:24:58;29.09;33.30
76040;SHT30;64736;50.462;4.850;2023-06-26T15:27:24;28.57;33.26
76040;SHT30;64736;50.462;4.850;2023-06-26T15:29:50;27.03;35.09
76040;SHT30;64736;50.462;4.850;2023-06-26T15:32:15;25.62;36.71
76040;SHT30;64736;50.462;4.850;2023-06-26T15:34:42;26.11;36.64
76040;SHT30;64736;50.462;4.850;2023-06-26T15:37:07;26.82;35.89
76040;SHT30;64736;50.462;4.850;2023-06-26T15:39:33;26.19;36.68
76040;SHT30;64736;50.462;4.850;2023-06-26T15:41:59;26.40;37.05
76040;SHT30;64736;50.462;4.850;2023-06-26T15:44:24;27.99;34.92
76040;SHT30;64736;50.462;4.850;2023-06-26T15:46:50;27.96;34.84
76040;SHT30;64736;50.462;4.850;2023-06-26T15:49:16;27.52;34.93